sensor_id;sensor_type;location;lat;lon;timestamp;temperature;humidity
10583;DHT22;33679;51.218;6.786;2023-04-25T00:00:12;11.50;99.90
10583;DHT22;33679;51.218;6.786;2023-04-25T00:02:44;11.50;99.90
10583;DHT22;33679;51.218;6.786;2023-04-25T00:05:17;11.50;99.90
10583;DHT22;33679;51.218;6.786;2023-04-25T00:07:52;11.50;99.90
10583;DHT22;33679;51.218;6.786;2023-04-25T00:10:27;11.50;99.90
10583;DHT22;33679;51.218;6.786;2023-04-25T00:13:02;11.50;99.90
10583;DHT22;33679;51.218;6.786;2023-04-25T00:15:34;11.50;99.90
10583;DHT22;33679;51.218;6.786;2023-04-25T00:18:08;11.50;99.90
10583;DHT22;33679;51.218;6.786;2023-04-25T00:20:42;11.50;99.90
10583;DHT22;33679;51.218;6.786;2023-04-25T00:23:18;11.50;99.90
10583;DHT22;33679;51.218;6.786;2023-04-25T00:25:53;11.60;99.90
10583;DHT22;33679;51.218;6.786;2023-04-25T00:28:26;11.60;99.90
10583;DHT22;33679;51.218;6.786;2023-04-25T00:30:58;11.60;99.90
10583;DHT22;33679;51.218;6.786;2023-04-25T00:33:31;11.60;99.90
10583;DHT22;33679;51.218;6.786;2023-04-25T00:36:04;11.50;99.90
10583;DHT22;33679;51.218;6.786;2023-04-25T00:38:38;11.50;99.90
10583;DHT22;33679;51.218;6.786;2023-04-25T00:41:11;11.60;99.90
10583;DHT22;33679;51.218;6.786;2023-04-25T00:43:44;11.60;99.90
10583;DHT22;33679;51.218;6.786;2023-04-25T00:46:17;11.60;99.90
10583;DHT22;33679;51.218;6.786;2023-04-25T00:48:50;11.60;99.90
10583;DHT22;33679;51.218;6.786;2023-04-25T00:51:22;11.60;99.90
10583;DHT22;33679;51.218;6.786;2023-04-25T00:53:57;11.70;99.90
10583;DHT22;33679;51.218;6.786;2023-04-25T00:56:30;11.70;99.90
10583;DHT22;33679;51.218;6.786;2023-04-25T00:59:04;11.70;99.90
10583;DHT22;33679;51.218;6.786;2023-04-25T01:01:36;11.60;99.90
10583;DHT22;33679;51.218;6.786;2023-04-25T01:04:10;11.60;99.90
10583;DHT22;33679;51.218;6.786;2023-04-25T01:06:43;11.60;99.90
10583;DHT22;33679;51.218;6.786;2023-04-25T01:09:20;11.60;99.90
10583;DHT22;33679;51.218;6.786;2023-04-25T01:11:54;11.60;99.90
10583;DHT22;33679;51.218;6.786;2023-04-25T01:14:26;11.60;99.90
10583;DHT22;33679;51.218;6.786;2023-04-25T01:16:59;11.70;99.90
10583;DHT22;33679;51.218;6.786;2023-04-25T01:19:32;11.70;99.90
10583;DHT22;33679;51.218;6.786;2023-04-25T01:22:06;11.60;99.90
10583;DHT22;33679;51.218;6.786;2023-04-25T01:24:41;11.60;99.90
10583;DHT22;33679;51.218;6.786;2023-04-25T01:27:14;11.60;99.90
10583;DHT22;33679;51.218;6.786;2023-04-25T01:29:46;11.60;99.90
10583;DHT22;33679;51.218;6.786;2023-04-25T01:32:21;11.60;99.90
10583;DHT22;33679;51.218;6.786;2023-04-25T01:34:54;11.60;99.90
10583;DHT22;33679;51.218;6.786;2023-04-25T01:37:29;11.60;99.90
10583;DHT22;33679;51.218;6.786;2023-04-25T01:40:01;11.60;99.90
10583;DHT22;33679;51.218;6.786;2023-04-25T01:42:38;11.60;99.90
10583;DHT22;33679;51.218;6.786;2023-04-25T01:45:14;11.50;99.90
10583;DHT22;33679;51.218;6.786;2023-04-25T01:47:46;11.40;99.90
10583;DHT22;33679;51.218;6.786;2023-04-25T01:50:22;11.40;99.90
10583;DHT22;33679;51.218;6.786;2023-04-25T01:52:57;11.40;99.90
10583;DHT22;33679;51.218;6.786;2023-04-25T01:55:30;11.40;99.90
10583;DHT22;33679;51.218;6.786;2023-04-25T01:58:15;11.40;99.90
10583;DHT22;33679;51.218;6.786;2023-04-25T02:01:23;11.50;99.90
10583;DHT22;33679;51.218;6.786;2023-04-25T02:04:14;11.40;99.90
10583;DHT22;33679;51.218;6.786;2023-04-25T02:06:46;11.40;99.90
10583;DHT22;33679;51.218;6.786;2023-04-25T02:09:21;11.50;99.90
10583;DHT22;33679;51.218;6.786;2023-04-25T02:11:59;11.50;99.90
10583;DHT22;33679;51.218;6.786;2023-04-25T02:14:37;11.50;99.90
10583;DHT22;33679;51.218;6.786;2023-04-25T02:17:23;11.50;99.90
10583;DHT22;33679;51.218;6.786;2023-04-25T02:19:57;11.50;99.90
10583;DHT22;33679;51.218;6.786;2023-04-25T02:22:32;11.50;99.90
10583;DHT22;33679;51.218;6.786;2023-04-25T02:25:08;11.50;99.90
10583;DHT22;33679;51.218;6.786;2023-04-25T02:27:40;11.50;99.90
10583;DHT22;33679;51.218;6.786;2023-04-25T02:30:13;11.50;99.90
10583;DHT22;33679;51.218;6.786;2023-04-25T02:32:46;11.50;99.90
10583;DHT22;33679;51.218;6.786;2023-04-25T02:35:18;11.50;99.90
10583;DHT22;33679;51.218;6.786;2023-04-25T02:37:50;11.50;99.90
10583;DHT22;33679;51.218;6.786;2023-04-25T02:40:24;11.50;99.90
10583;DHT22;33679;51.218;6.786;2023-04-25T02:42:58;11.50;99.90
10583;DHT22;33679;51.218;6.786;2023-04-25T02:45:31;11.50;99.90
10583;DHT22;33679;51.218;6.786;2023-04-25T02:48:03;11.50;99.90
10583;DHT22;33679;51.218;6.786;2023-04-25T02:50:38;11.50;99.90
10583;DHT22;33679;51.218;6.786;2023-04-25T02:53:10;11.50;99.90
10583;DHT22;33679;51.218;6.786;2023-04-25T02:55:51;11.40;99.90
10583;DHT22;33679;51.218;6.786;2023-04-25T02:58:24;11.40;99.90
10583;DHT22;33679;51.218;6.786;2023-04-25T03:00:57;11.40;99.90
10583;DHT22;33679;51.218;6.786;2023-04-25T03:03:30;11.40;99.90
10583;DHT22;33679;51.218;6.786;2023-04-25T03:06:03;11.40;99.90
10583;DHT22;33679;51.218;6.786;2023-04-25T03:08:37;11.40;99.90
10583;DHT22;33679;51.218;6.786;2023-04-25T03:11:11;11.30;99.90
10583;DHT22;33679;51.218;6.786;2023-04-25T03:13:46;11.30;99.90
10583;DHT22;33679;51.218;6.786;2023-04-25T03:16:19;11.30;99.90
10583;DHT22;33679;51.218;6.786;2023-04-25T03:18:51;11.30;99.90
10583;DHT22;33679;51.218;6.786;2023-04-25T03:21:23;11.30;99.90
10583;DHT22;33679;51.218;6.786;2023-04-25T03:23:56;11.30;99.90
10583;DHT22;33679;51.218;6.786;2023-04-25T03:26:29;11.30;99.90
10583;DHT22;33679;51.218;6.786;2023-04-25T03:29:02;11.20;99.90
10583;DHT22;33679;51.218;6.786;2023-04-25T03:31:34;11.20;99.90
10583;DHT22;33679;51.218;6.786;2023-04-25T03:34:07;11.20;99.90
10583;DHT22;33679;51.218;6.786;2023-04-25T03:36:39;11.10;99.90
10583;DHT22;33679;51.218;6.786;2023-04-25T03:39:11;11.00;99.90
10583;DHT22;33679;51.218;6.786;2023-04-25T03:41:49;11.00;99.90
10583;DHT22;33679;51.218;6.786;2023-04-25T03:44:23;11.00;99.90
10583;DHT22;33679;51.218;6.786;2023-04-25T03:46:56;11.00;99.90
10583;DHT22;33679;51.218;6.786;2023-04-25T03:49:29;11.00;99.90
10583;DHT22;33679;51.218;6.786;2023-04-25T03:52:10;11.00;99.90
10583;DHT22;33679;51.218;6.786;2023-04-25T03:54:45;10.90;99.90
10583;DHT22;33679;51.218;6.786;2023-04-25T03:57:22;10.90;99.90
10583;DHT22;33679;51.218;6.786;2023-04-25T03:59:56;10.80;99.90
10583;DHT22;33679;51.218;6.786;2023-04-25T04:02:28;10.70;99.90
10583;DHT22;33679;51.218;6.786;2023-04-25T04:05:03;10.70;99.90
10583;DHT22;33679;51.218;6.786;2023-04-25T04:07:40;10.70;99.90
10583;DHT22;33679;51.218;6.786;2023-04-25T04:10:16;10.60;99.90
10583;DHT22;33679;51.218;6.786;2023-04-25T04:13:08;10.60;99.90
10583;DHT22;33679;51.218;6.786;2023-04-25T04:15:42;10.60;99.90
10583;DHT22;33679;51.218;6.786;2023-04-25T04:18:14;10.50;99.90
10583;DHT22;33679;51.218;6.786;2023-04-25T04:20:47;10.50;99.90
10583;DHT22;33679;51.218;6.786;2023-04-25T04:23:19;10.40;99.90
10583;DHT22;33679;51.218;6.786;2023-04-25T04:25:53;10.40;99.90
10583;DHT22;33679;51.218;6.786;2023-04-25T04:28:47;10.40;99.90
10583;DHT22;33679;51.218;6.786;2023-04-25T04:31:29;10.40;99.90
10583;DHT22;33679;51.218;6.786;2023-04-25T04:34:02;10.40;99.90
10583;DHT22;33679;51.218;6.786;2023-04-25T04:36:38;10.30;99.90
10583;DHT22;33679;51.218;6.786;2023-04-25T04:39:12;10.30;99.90
10583;DHT22;33679;51.218;6.786;2023-04-25T04:42:05;10.40;99.90
10583;DHT22;33679;51.218;6.786;2023-04-25T04:45:11;10.40;99.90
10583;DHT22;33679;51.218;6.786;2023-04-25T04:47:50;10.40;99.90
10583;DHT22;33679;51.218;6.786;2023-04-25T04:50:43;10.40;99.90
10583;DHT22;33679;51.218;6.786;2023-04-25T04:53:28;10.40;99.90
10583;DHT22;33679;51.218;6.786;2023-04-25T04:56:00;10.40;99.90
10583;DHT22;33679;51.218;6.786;2023-04-25T04:58:51;10.40;99.90
10583;DHT22;33679;51.218;6.786;2023-04-25T05:01:52;10.40;99.90
10583;DHT22;33679;51.218;6.786;2023-04-25T05:04:24;10.50;99.90
10583;DHT22;33679;51.218;6.786;2023-04-25T05:07:15;10.50;99.90
10583;DHT22;33679;51.218;6.786;2023-04-25T05:09:58;10.60;99.90
10583;DHT22;33679;51.218;6.786;2023-04-25T05:12:47;10.70;99.90
10583;DHT22;33679;51.218;6.786;2023-04-25T05:15:42;10.70;99.90
10583;DHT22;33679;51.218;6.786;2023-04-25T05:18:25;10.80;99.90
10583;DHT22;33679;51.218;6.786;2023-04-25T05:21:09;10.90;99.90
10583;DHT22;33679;51.218;6.786;2023-04-25T05:24:04;10.90;99.90
10583;DHT22;33679;51.218;6.786;2023-04-25T05:26:58;11.00;99.90
10583;DHT22;33679;51.218;6.786;2023-04-25T05:29:51;11.00;99.90
10583;DHT22;33679;51.218;6.786;2023-04-25T05:32:30;11.00;99.90
10583;DHT22;33679;51.218;6.786;2023-04-25T05:35:05;11.10;99.90
10583;DHT22;33679;51.218;6.786;2023-04-25T05:37:45;11.10;99.90
10583;DHT22;33679;51.218;6.786;2023-04-25T05:40:19;11.10;99.90
10583;DHT22;33679;51.218;6.786;2023-04-25T05:43:14;11.10;99.90
10583;DHT22;33679;51.218;6.786;2023-04-25T05:46:05;11.10;99.90
10583;DHT22;33679;51.218;6.786;2023-04-25T05:49:00;11.00;99.90
10583;DHT22;33679;51.218;6.786;2023-04-25T05:52:04;11.00;99.90
10583;DHT22;33679;51.218;6.786;2023-04-25T05:54:51;11.00;99.90
10583;DHT22;33679;51.218;6.786;2023-04-25T05:57:26;11.10;99.90
10583;DHT22;33679;51.218;6.786;2023-04-25T06:00:08;11.20;99.90
10583;DHT22;33679;51.218;6.786;2023-04-25T06:02:48;11.30;99.90
10583;DHT22;33679;51.218;6.786;2023-04-25T06:05:20;11.40;99.90
10583;DHT22;33679;51.218;6.786;2023-04-25T06:07:57;11.50;99.90
10583;DHT22;33679;51.218;6.786;2023-04-25T06:10:36;11.70;99.90
10583;DHT22;33679;51.218;6.786;2023-04-25T06:13:08;11.70;99.90
10583;DHT22;33679;51.218;6.786;2023-04-25T06:15:41;11.80;99.90
10583;DHT22;33679;51.218;6.786;2023-04-25T06:18:17;11.90;99.90
10583;DHT22;33679;51.218;6.786;2023-04-25T06:20:50;12.00;99.90
10583;DHT22;33679;51.218;6.786;2023-04-25T06:23:25;12.10;99.90
10583;DHT22;33679;51.218;6.786;2023-04-25T06:26:09;12.10;99.90
10583;DHT22;33679;51.218;6.786;2023-04-25T06:28:43;12.30;99.90
10583;DHT22;33679;51.218;6.786;2023-04-25T06:31:16;12.30;99.90
10583;DHT22;33679;51.218;6.786;2023-04-25T06:33:51;12.40;99.90
10583;DHT22;33679;51.218;6.786;2023-04-25T06:36:25;12.40;99.90
10583;DHT22;33679;51.218;6.786;2023-04-25T06:39:08;12.40;99.90
10583;DHT22;33679;51.218;6.786;2023-04-25T06:41:40;12.30;99.90
10583;DHT22;33679;51.218;6.786;2023-04-25T06:44:20;12.20;99.90
10583;DHT22;33679;51.218;6.786;2023-04-25T06:46:57;12.10;99.90
10583;DHT22;33679;51.218;6.786;2023-04-25T06:49:31;12.10;99.90
10583;DHT22;33679;51.218;6.786;2023-04-25T06:52:04;12.00;99.90
10583;DHT22;33679;51.218;6.786;2023-04-25T06:54:38;11.90;99.90
10583;DHT22;33679;51.218;6.786;2023-04-25T06:57:35;11.90;99.90
10583;DHT22;33679;51.218;6.786;2023-04-25T07:00:27;11.90;99.90
10583;DHT22;33679;51.218;6.786;2023-04-25T07:03:01;11.90;99.90
10583;DHT22;33679;51.218;6.786;2023-04-25T07:05:33;12.00;99.90
10583;DHT22;33679;51.218;6.786;2023-04-25T07:08:06;12.00;99.90
10583;DHT22;33679;51.218;6.786;2023-04-25T07:10:43;12.00;99.90
10583;DHT22;33679;51.218;6.786;2023-04-25T07:13:17;12.10;99.90
10583;DHT22;33679;51.218;6.786;2023-04-25T07:15:49;12.10;99.90
10583;DHT22;33679;51.218;6.786;2023-04-25T07:18:24;12.10;99.90
10583;DHT22;33679;51.218;6.786;2023-04-25T07:20:57;12.20;99.90
10583;DHT22;33679;51.218;6.786;2023-04-25T07:23:30;12.10;99.90
10583;DHT22;33679;51.218;6.786;2023-04-25T07:26:09;12.20;99.90
10583;DHT22;33679;51.218;6.786;2023-04-25T07:28:51;12.20;99.90
10583;DHT22;33679;51.218;6.786;2023-04-25T07:31:23;12.20;99.90
10583;DHT22;33679;51.218;6.786;2023-04-25T07:33:56;12.30;99.90
10583;DHT22;33679;51.218;6.786;2023-04-25T07:36:28;12.30;99.90
10583;DHT22;33679;51.218;6.786;2023-04-25T07:39:01;12.40;99.90
10583;DHT22;33679;51.218;6.786;2023-04-25T07:41:36;12.40;99.90
10583;DHT22;33679;51.218;6.786;2023-04-25T07:44:09;12.50;99.90
10583;DHT22;33679;51.218;6.786;2023-04-25T07:46:44;12.40;99.90
10583;DHT22;33679;51.218;6.786;2023-04-25T07:49:19;12.50;99.90
10583;DHT22;33679;51.218;6.786;2023-04-25T07:51:52;12.40;99.90
10583;DHT22;33679;51.218;6.786;2023-04-25T07:54:25;12.50;99.90
10583;DHT22;33679;51.218;6.786;2023-04-25T07:57:05;12.50;99.90
10583;DHT22;33679;51.218;6.786;2023-04-25T07:59:39;12.50;99.90
10583;DHT22;33679;51.218;6.786;2023-04-25T08:02:12;12.40;99.90
10583;DHT22;33679;51.218;6.786;2023-04-25T08:04:44;12.30;99.90
10583;DHT22;33679;51.218;6.786;2023-04-25T08:07:21;12.30;99.90
10583;DHT22;33679;51.218;6.786;2023-04-25T08:09:57;12.30;99.90
10583;DHT22;33679;51.218;6.786;2023-04-25T08:12:36;12.30;99.90
10583;DHT22;33679;51.218;6.786;2023-04-25T08:15:09;12.20;99.90
10583;DHT22;33679;51.218;6.786;2023-04-25T08:17:44;12.20;99.90
10583;DHT22;33679;51.218;6.786;2023-04-25T08:20:17;12.30;99.90
10583;DHT22;33679;51.218;6.786;2023-04-25T08:22:50;12.40;99.90
10583;DHT22;33679;51.218;6.786;2023-04-25T08:25:42;12.40;99.90
10583;DHT22;33679;51.218;6.786;2023-04-25T08:28:19;12.50;99.90
10583;DHT22;33679;51.218;6.786;2023-04-25T08:30:53;12.50;99.90
10583;DHT22;33679;51.218;6.786;2023-04-25T08:33:26;12.50;99.90
10583;DHT22;33679;51.218;6.786;2023-04-25T08:36:06;12.50;99.90
10583;DHT22;33679;51.218;6.786;2023-04-25T08:38:38;12.60;99.90
10583;DHT22;33679;51.218;6.786;2023-04-25T08:41:14;12.50;99.90
10583;DHT22;33679;51.218;6.786;2023-04-25T08:43:49;12.50;99.90
10583;DHT22;33679;51.218;6.786;2023-04-25T08:46:21;12.50;99.90
10583;DHT22;33679;51.218;6.786;2023-04-25T08:49:18;12.50;99.90
10583;DHT22;33679;51.218;6.786;2023-04-25T08:51:53;12.50;99.90
10583;DHT22;33679;51.218;6.786;2023-04-25T08:54:28;12.50;99.90
10583;DHT22;33679;51.218;6.786;2023-04-25T08:57:03;12.50;99.90
10583;DHT22;33679;51.218;6.786;2023-04-25T08:59:37;12.60;99.90
10583;DHT22;33679;51.218;6.786;2023-04-25T09:02:12;12.70;99.90
10583;DHT22;33679;51.218;6.786;2023-04-25T09:04:50;12.80;99.90
10583;DHT22;33679;51.218;6.786;2023-04-25T09:07:25;12.80;99.90
10583;DHT22;33679;51.218;6.786;2023-04-25T09:09:59;12.80;99.90
10583;DHT22;33679;51.218;6.786;2023-04-25T09:12:35;12.90;99.90
10583;DHT22;33679;51.218;6.786;2023-04-25T09:15:12;13.00;99.90
10583;DHT22;33679;51.218;6.786;2023-04-25T09:18:03;13.00;99.90
10583;DHT22;33679;51.218;6.786;2023-04-25T09:20:48;13.00;99.90
10583;DHT22;33679;51.218;6.786;2023-04-25T09:23:25;13.00;99.90
10583;DHT22;33679;51.218;6.786;2023-04-25T09:26:00;13.10;99.90
10583;DHT22;33679;51.218;6.786;2023-04-25T09:28:32;13.10;99.90
10583;DHT22;33679;51.218;6.786;2023-04-25T09:31:10;13.00;99.90
10583;DHT22;33679;51.218;6.786;2023-04-25T09:33:58;13.00;99.90
10583;DHT22;33679;51.218;6.786;2023-04-25T09:36:40;13.00;99.90
10583;DHT22;33679;51.218;6.786;2023-04-25T09:39:44;12.90;99.90
10583;DHT22;33679;51.218;6.786;2023-04-25T09:42:22;12.80;99.90
10583;DHT22;33679;51.218;6.786;2023-04-25T09:44:56;12.90;99.90
10583;DHT22;33679;51.218;6.786;2023-04-25T09:47:37;12.90;99.90
10583;DHT22;33679;51.218;6.786;2023-04-25T09:50:17;13.00;99.90
10583;DHT22;33679;51.218;6.786;2023-04-25T09:53:02;13.10;99.90
10583;DHT22;33679;51.218;6.786;2023-04-25T09:55:44;13.20;99.90
10583;DHT22;33679;51.218;6.786;2023-04-25T09:58:20;13.10;99.90
10583;DHT22;33679;51.218;6.786;2023-04-25T10:00:54;13.20;99.90
10583;DHT22;33679;51.218;6.786;2023-04-25T10:03:40;13.20;99.90
10583;DHT22;33679;51.218;6.786;2023-04-25T10:06:34;13.20;99.90
10583;DHT22;33679;51.218;6.786;2023-04-25T10:09:11;13.40;99.90
10583;DHT22;33679;51.218;6.786;2023-04-25T10:11:47;13.40;99.90
10583;DHT22;33679;51.218;6.786;2023-04-25T10:14:20;13.40;99.90
10583;DHT22;33679;51.218;6.786;2023-04-25T10:16:54;13.50;99.90
10583;DHT22;33679;51.218;6.786;2023-04-25T10:19:29;13.50;99.90
10583;DHT22;33679;51.218;6.786;2023-04-25T10:22:07;13.60;99.90
10583;DHT22;33679;51.218;6.786;2023-04-25T10:24:41;13.60;99.90
10583;DHT22;33679;51.218;6.786;2023-04-25T10:27:14;13.60;99.90
10583;DHT22;33679;51.218;6.786;2023-04-25T10:30:00;13.60;99.90
10583;DHT22;33679;51.218;6.786;2023-04-25T10:32:33;13.70;99.90
10583;DHT22;33679;51.218;6.786;2023-04-25T10:35:25;13.80;99.90
10583;DHT22;33679;51.218;6.786;2023-04-25T10:38:05;14.00;99.90
10583;DHT22;33679;51.218;6.786;2023-04-25T10:40:40;14.10;99.90
10583;DHT22;33679;51.218;6.786;2023-04-25T10:43:38;14.20;99.90
10583;DHT22;33679;51.218;6.786;2023-04-25T10:46:19;14.10;99.90
10583;DHT22;33679;51.218;6.786;2023-04-25T10:48:54;14.10;99.90
10583;DHT22;33679;51.218;6.786;2023-04-25T10:51:29;14.10;99.90
10583;DHT22;33679;51.218;6.786;2023-04-25T10:54:04;14.30;99.90
10583;DHT22;33679;51.218;6.786;2023-04-25T10:56:39;14.40;99.90
10583;DHT22;33679;51.218;6.786;2023-04-25T10:59:16;14.40;99.90
10583;DHT22;33679;51.218;6.786;2023-04-25T11:01:52;14.40;99.90
10583;DHT22;33679;51.218;6.786;2023-04-25T11:04:32;14.40;99.90
10583;DHT22;33679;51.218;6.786;2023-04-25T11:07:16;14.40;99.90
10583;DHT22;33679;51.218;6.786;2023-04-25T11:09:52;14.50;99.90
10583;DHT22;33679;51.218;6.786;2023-04-25T11:12:25;14.60;99.90
10583;DHT22;33679;51.218;6.786;2023-04-25T11:15:00;14.60;99.90
10583;DHT22;33679;51.218;6.786;2023-04-25T11:17:33;14.70;99.90
10583;DHT22;33679;51.218;6.786;2023-04-25T11:20:07;14.70;99.90
10583;DHT22;33679;51.218;6.786;2023-04-25T11:22:46;14.70;99.90
10583;DHT22;33679;51.218;6.786;2023-04-25T11:25:19;14.80;99.90
10583;DHT22;33679;51.218;6.786;2023-04-25T11:27:51;14.60;99.90
10583;DHT22;33679;51.218;6.786;2023-04-25T11:30:25;14.50;99.90
10583;DHT22;33679;51.218;6.786;2023-04-25T11:33:00;14.50;99.90
10583;DHT22;33679;51.218;6.786;2023-04-25T11:35:34;14.50;99.90
10583;DHT22;33679;51.218;6.786;2023-04-25T11:38:08;14.40;99.90
10583;DHT22;33679;51.218;6.786;2023-04-25T11:40:43;14.30;99.90
10583;DHT22;33679;51.218;6.786;2023-04-25T11:43:17;14.30;99.90
10583;DHT22;33679;51.218;6.786;2023-04-25T11:45:50;14.30;99.90
10583;DHT22;33679;51.218;6.786;2023-04-25T11:48:23;14.30;99.90
10583;DHT22;33679;51.218;6.786;2023-04-25T11:50:55;14.20;99.90
10583;DHT22;33679;51.218;6.786;2023-04-25T11:53:29;14.20;99.90
10583;DHT22;33679;51.218;6.786;2023-04-25T11:56:10;14.20;99.90
10583;DHT22;33679;51.218;6.786;2023-04-25T11:58:56;14.20;99.90
10583;DHT22;33679;51.218;6.786;2023-04-25T12:01:30;14.30;99.90
10583;DHT22;33679;51.218;6.786;2023-04-25T12:04:13;14.40;99.90
10583;DHT22;33679;51.218;6.786;2023-04-25T12:06:46;14.50;99.90
10583;DHT22;33679;51.218;6.786;2023-04-25T12:09:29;14.50;99.90
10583;DHT22;33679;51.218;6.786;2023-04-25T12:12:02;14.60;99.90
10583;DHT22;33679;51.218;6.786;2023-04-25T12:14:36;14.70;99.90
10583;DHT22;33679;51.218;6.786;2023-04-25T12:17:11;14.70;99.90
10583;DHT22;33679;51.218;6.786;2023-04-25T12:19:47;14.80;99.90
10583;DHT22;33679;51.218;6.786;2023-04-25T12:22:21;14.80;99.90
10583;DHT22;33679;51.218;6.786;2023-04-25T12:24:55;14.70;99.90
10583;DHT22;33679;51.218;6.786;2023-04-25T12:27:32;14.70;99.90
10583;DHT22;33679;51.218;6.786;2023-04-25T12:30:05;14.60;99.90
10583;DHT22;33679;51.218;6.786;2023-04-25T12:32:38;14.50;99.90
10583;DHT22;33679;51.218;6.786;2023-04-25T12:35:10;14.20;99.90
10583;DHT22;33679;51.218;6.786;2023-04-25T12:37:43;14.10;99.90
10583;DHT22;33679;51.218;6.786;2023-04-25T12:40:17;14.00;99.90
10583;DHT22;33679;51.218;6.786;2023-04-25T12:42:51;13.90;99.90
10583;DHT22;33679;51.218;6.786;2023-04-25T12:45:23;13.70;99.90
10583;DHT22;33679;51.218;6.786;2023-04-25T12:47:57;13.70;99.90
10583;DHT22;33679;51.218;6.786;2023-04-25T12:50:29;13.60;99.90
10583;DHT22;33679;51.218;6.786;2023-04-25T12:53:02;13.60;99.90
10583;DHT22;33679;51.218;6.786;2023-04-25T12:55:36;13.50;99.90
10583;DHT22;33679;51.218;6.786;2023-04-25T12:58:09;13.50;99.90
10583;DHT22;33679;51.218;6.786;2023-04-25T13:00:41;13.50;99.90
10583;DHT22;33679;51.218;6.786;2023-04-25T13:03:14;13.60;99.90
10583;DHT22;33679;51.218;6.786;2023-04-25T13:05:47;13.60;99.90
10583;DHT22;33679;51.218;6.786;2023-04-25T13:08:19;13.70;99.90
10583;DHT22;33679;51.218;6.786;2023-04-25T13:10:53;14.00;99.90
10583;DHT22;33679;51.218;6.786;2023-04-25T13:13:26;14.10;99.90
10583;DHT22;33679;51.218;6.786;2023-04-25T13:16:00;14.10;99.90
10583;DHT22;33679;51.218;6.786;2023-04-25T13:18:33;14.10;99.90
10583;DHT22;33679;51.218;6.786;2023-04-25T13:21:06;14.20;99.90
10583;DHT22;33679;51.218;6.786;2023-04-25T13:23:40;14.20;99.90
10583;DHT22;33679;51.218;6.786;2023-04-25T13:26:17;14.30;99.90
10583;DHT22;33679;51.218;6.786;2023-04-25T13:28:49;14.30;99.90
10583;DHT22;33679;51.218;6.786;2023-04-25T13:31:22;14.20;99.90
10583;DHT22;33679;51.218;6.786;2023-04-25T13:33:55;14.30;99.90
10583;DHT22;33679;51.218;6.786;2023-04-25T13:36:28;14.40;99.90
10583;DHT22;33679;51.218;6.786;2023-04-25T13:39:01;14.40;99.90
10583;DHT22;33679;51.218;6.786;2023-04-25T13:41:38;14.40;99.90
10583;DHT22;33679;51.218;6.786;2023-04-25T13:44:21;14.50;99.90
10583;DHT22;33679;51.218;6.786;2023-04-25T13:46:53;14.50;99.90
10583;DHT22;33679;51.218;6.786;2023-04-25T13:49:26;14.60;99.90
10583;DHT22;33679;51.218;6.786;2023-04-25T13:51:58;14.60;99.90
10583;DHT22;33679;51.218;6.786;2023-04-25T13:54:31;14.70;99.90
10583;DHT22;33679;51.218;6.786;2023-04-25T13:57:08;14.70;99.90
10583;DHT22;33679;51.218;6.786;2023-04-25T13:59:44;14.70;99.90
10583;DHT22;33679;51.218;6.786;2023-04-25T14:02:17;14.70;99.90
10583;DHT22;33679;51.218;6.786;2023-04-25T14:04:50;14.80;99.90
10583;DHT22;33679;51.218;6.786;2023-04-25T14:07:22;14.90;99.90
10583;DHT22;33679;51.218;6.786;2023-04-25T14:10:03;14.90;99.90
10583;DHT22;33679;51.218;6.786;2023-04-25T14:12:38;14.90;99.90
10583;DHT22;33679;51.218;6.786;2023-04-25T14:15:13;14.90;99.90
10583;DHT22;33679;51.218;6.786;2023-04-25T14:17:46;15.00;99.90
10583;DHT22;33679;51.218;6.786;2023-04-25T14:20:19;15.10;99.90
10583;DHT22;33679;51.218;6.786;2023-04-25T14:22:54;15.20;99.90
10583;DHT22;33679;51.218;6.786;2023-04-25T14:25:30;15.30;99.90
10583;DHT22;33679;51.218;6.786;2023-04-25T14:28:04;15.30;99.90
10583;DHT22;33679;51.218;6.786;2023-04-25T14:30:38;15.10;99.90
10583;DHT22;33679;51.218;6.786;2023-04-25T14:33:11;15.00;99.90
10583;DHT22;33679;51.218;6.786;2023-04-25T14:35:44;14.90;99.90
10583;DHT22;33679;51.218;6.786;2023-04-25T14:38:17;14.80;99.90
10583;DHT22;33679;51.218;6.786;2023-04-25T14:40:54;14.80;99.90
10583;DHT22;33679;51.218;6.786;2023-04-25T14:43:28;14.70;99.90
10583;DHT22;33679;51.218;6.786;2023-04-25T14:46:00;14.70;99.90
10583;DHT22;33679;51.218;6.786;2023-04-25T14:48:33;14.70;99.90
10583;DHT22;33679;51.218;6.786;2023-04-25T14:51:06;14.70;99.90
10583;DHT22;33679;51.218;6.786;2023-04-25T14:53:40;14.70;99.90
10583;DHT22;33679;51.218;6.786;2023-04-25T14:56:13;14.70;99.90
10583;DHT22;33679;51.218;6.786;2023-04-25T14:58:47;14.70;99.90
10583;DHT22;33679;51.218;6.786;2023-04-25T15:01:19;14.70;99.90
10583;DHT22;33679;51.218;6.786;2023-04-25T15:03:52;14.70;99.90
10583;DHT22;33679;51.218;6.786;2023-04-25T15:06:25;14.70;99.90
10583;DHT22;33679;51.218;6.786;2023-04-25T15:09:00;14.80;99.90
10583;DHT22;33679;51.218;6.786;2023-04-25T15:11:33;14.90;99.90
10583;DHT22;33679;51.218;6.786;2023-04-25T15:14:07;14.80;99.90
10583;DHT22;33679;51.218;6.786;2023-04-25T15:16:40;14.80;99.90
10583;DHT22;33679;51.218;6.786;2023-04-25T15:19:12;14.70;99.90
10583;DHT22;33679;51.218;6.786;2023-04-25T15:21:46;14.60;99.90
10583;DHT22;33679;51.218;6.786;2023-04-25T15:24:18;14.50;99.90
10583;DHT22;33679;51.218;6.786;2023-04-25T15:26:51;14.40;99.90
10583;DHT22;33679;51.218;6.786;2023-04-25T15:29:25;14.30;99.90
10583;DHT22;33679;51.218;6.786;2023-04-25T15:31:59;14.30;99.90
10583;DHT22;33679;51.218;6.786;2023-04-25T15:34:31;14.30;99.90
10583;DHT22;33679;51.218;6.786;2023-04-25T15:37:03;14.40;99.90
10583;DHT22;33679;51.218;6.786;2023-04-25T15:39:35;14.30;99.90
10583;DHT22;33679;51.218;6.786;2023-04-25T15:42:08;14.30;99.90
10583;DHT22;33679;51.218;6.786;2023-04-25T15:44:42;14.30;99.90
10583;DHT22;33679;51.218;6.786;2023-04-25T15:47:16;14.30;99.90
10583;DHT22;33679;51.218;6.786;2023-04-25T15:49:48;14.30;99.90
10583;DHT22;33679;51.218;6.786;2023-04-25T15:52:20;14.30;99.90
10583;DHT22;33679;51.218;6.786;2023-04-25T15:54:53;14.40;99.90
10583;DHT22;33679;51.218;6.786;2023-04-25T15:57:26;14.40;99.90
10583;DHT22;33679;51.218;6.786;2023-04-25T16:00:03;14.50;99.90
10583;DHT22;33679;51.218;6.786;2023-04-25T16:02:43;14.40;99.90
10583;DHT22;33679;51.218;6.786;2023-04-25T16:05:20;14.30;99.90
10583;DHT22;33679;51.218;6.786;2023-04-25T16:07:52;14.30;99.90
10583;DHT22;33679;51.218;6.786;2023-04-25T16:10:24;14.40;99.90
10583;DHT22;33679;51.218;6.786;2023-04-25T16:12:57;14.40;99.90
10583;DHT22;33679;51.218;6.786;2023-04-25T16:15:31;14.40;99.90
10583;DHT22;33679;51.218;6.786;2023-04-25T16:18:04;14.40;99.90
10583;DHT22;33679;51.218;6.786;2023-04-25T16:20:38;14.40;99.90
10583;DHT22;33679;51.218;6.786;2023-04-25T16:23:11;14.40;99.90
10583;DHT22;33679;51.218;6.786;2023-04-25T16:25:44;14.40;99.90